Time;durP1;ratioP1;P1;durP2;ratioP2;P2;SDS_P1;SDS_P2;PMS_P1;PMS_P2;Temp;Humidity;BMP_temperature;BMP_pressure;BME280_temperature;BME280_humidity;BME280_pressure;Samples;Min_cycle;Max_cycle;Signal;HPM_P1;HPM_P2
2022/09/21 00:00:26;;;;;;;9.50;4.03;;;16.90;65.70;;;;;;5053091;28;20219;-93
2022/09/21 00:02:56;;;;;;;8.77;4.27;;;16.90;65.40;;;;;;5056103;28;20204;-93
2022/09/21 00:08:14;;;;;;;7.00;3.80;;;16.90;65.70;;;;;;5034410;28;20236;-93
2022/09/21 00:10:41;;;;;;;8.17;3.67;;;16.80;65.20;;;;;;5054425;28;20247;-92
2022/09/21 00:13:12;;;;;;;8.93;4.03;;;16.80;65.10;;;;;;5054304;28;20263;-93
2022/09/21 00:15:41;;;;;;;11.47;4.63;;;16.80;65.10;;;;;;5053404;28;20204;-92
2022/09/21 00:18:17;;;;;;;11.70;4.30;;;16.80;65.20;;;;;;5053793;28;20257;-91
2022/09/21 00:20:47;;;;;;;13.47;4.97;;;16.80;65.50;;;;;;5053436;28;20234;-93
2022/09/21 00:23:26;;;;;;;7.80;3.70;;;16.70;65.40;;;;;;5051455;28;20206;-92
2022/09/21 00:26:06;;;;;;;15.87;5.47;;;16.70;65.20;;;;;;5050055;28;20220;-92
2022/09/21 00:28:40;;;;;;;16.67;5.13;;;16.60;65.70;;;;;;5052477;28;20245;-92
2022/09/21 00:31:22;;;;;;;8.90;3.80;;;16.70;65.60;;;;;;5053360;28;20204;-92
2022/09/21 00:36:21;;;;;;;7.43;3.20;;;16.60;65.70;;;;;;5053448;22;20298;-92
2022/09/21 00:38:55;;;;;;;12.57;4.60;;;16.60;65.60;;;;;;5035688;28;20209;-92
2022/09/21 00:41:27;;;;;;;5.10;3.10;;;16.60;65.60;;;;;;5052391;28;20220;-91
2022/09/21 00:44:31;;;;;;;9.47;3.93;;;16.50;65.80;;;;;;5047865;28;20209;-92
2022/09/21 00:47:14;;;;;;;5.80;3.30;;;16.50;66.10;;;;;;5041350;28;20212;-93
2022/09/21 00:49:57;;;;;;;9.63;4.03;;;16.50;66.10;;;;;;5042337;28;20205;-93
2022/09/21 00:52:26;;;;;;;11.63;4.77;;;16.50;65.80;;;;;;5050987;28;20257;-93
2022/09/21 00:54:58;;;;;;;6.77;3.50;;;16.40;66.00;;;;;;5053206;28;20213;-91
2022/09/21 00:57:30;;;;;;;7.47;3.50;;;16.40;66.30;;;;;;5053034;28;20228;-94
2022/09/21 01:00:02;;;;;;;7.70;3.70;;;16.40;66.20;;;;;;5051137;28;20204;-93
2022/09/21 01:02:41;;;;;;;13.50;4.77;;;16.40;66.30;;;;;;5042961;28;20198;-94
2022/09/21 01:05:11;;;;;;;7.60;3.57;;;16.40;66.50;;;;;;5053067;28;20212;-94
2022/09/21 01:07:41;;;;;;;6.43;3.00;;;16.30;66.20;;;;;;5049306;28;20207;-93
2022/09/21 01:10:20;;;;;;;9.67;4.10;;;16.30;66.20;;;;;;5035068;28;20201;-92
2022/09/21 01:13:13;;;;;;;8.03;3.77;;;16.30;66.20;;;;;;5038842;28;20549;-93
2022/09/21 01:15:55;;;;;;;7.23;3.10;;;16.30;66.80;;;;;;5052784;28;20255;-95
2022/09/21 01:18:30;;;;;;;6.60;3.33;;;16.20;66.60;;;;;;5050664;28;20653;-94
2022/09/21 01:21:34;;;;;;;7.07;3.73;;;16.20;66.30;;;;;;5043813;28;20251;-93
2022/09/21 01:24:45;;;;;;;12.23;5.00;;;16.20;66.60;;;;;;5052154;28;20935;-95
2022/09/21 01:27:52;;;;;;;10.50;4.27;;;16.20;66.70;;;;;;5043941;28;20595;-93
2022/09/21 01:30:22;;;;;;;15.00;5.77;;;16.10;66.40;;;;;;5037064;28;20198;-94
2022/09/21 01:32:58;;;;;;;14.77;5.27;;;16.10;65.80;;;;;;5054232;22;20257;-93
2022/09/21 01:35:32;;;;;;;10.57;4.07;;;16.00;65.90;;;;;;5049003;28;20206;-91
2022/09/21 01:38:03;;;;;;;11.50;4.70;;;16.00;66.00;;;;;;5052087;28;20208;-93
2022/09/21 01:40:33;;;;;;;12.37;4.90;;;16.00;66.00;;;;;;5049292;28;20315;-92
2022/09/21 01:43:18;;;;;;;11.33;4.80;;;15.90;66.00;;;;;;5033217;28;20209;-94
2022/09/21 01:46:07;;;;;;;10.00;4.10;;;15.90;66.30;;;;;;5035697;28;20288;-94
2022/09/21 01:48:40;;;;;;;13.90;5.17;;;15.80;66.30;;;;;;5051805;28;20205;-95
2022/09/21 01:51:22;;;;;;;24.73;7.67;;;15.80;66.00;;;;;;5051318;28;20216;-95
2022/09/21 01:53:54;;;;;;;14.00;5.17;;;15.80;66.20;;;;;;5053124;28;20215;-93
2022/09/21 01:56:36;;;;;;;9.30;4.07;;;15.70;65.90;;;;;;5056486;28;20227;-93
2022/09/21 01:59:11;;;;;;;8.53;4.03;;;15.70;66.10;;;;;;5063526;28;20210;-91
2022/09/21 02:01:44;;;;;;;6.83;3.27;;;15.60;66.10;;;;;;5057199;28;20274;-91
2022/09/21 02:04:13;;;;;;;14.20;5.60;;;15.60;66.10;;;;;;5056410;28;20204;-92
2022/09/21 02:06:47;;;;;;;10.30;4.40;;;15.60;66.10;;;;;;5057040;28;20248;-92
2022/09/21 02:09:15;;;;;;;7.60;3.87;;;15.50;66.20;;;;;;5055704;28;20699;-94
2022/09/21 02:11:52;;;;;;;16.00;5.00;;;15.50;66.00;;;;;;5057054;28;20211;-93
2022/09/21 02:14:23;;;;;;;10.67;4.27;;;15.50;66.10;;;;;;5055420;28;20200;-93
2022/09/21 02:17:04;;;;;;;10.50;4.47;;;15.40;66.10;;;;;;5055405;28;20210;-92
2022/09/21 02:19:40;;;;;;;7.63;3.83;;;15.40;66.40;;;;;;5063120;28;20235;-90
2022/09/21 02:22:13;;;;;;;15.53;5.53;;;15.30;66.30;;;;;;5062970;28;20237;-91
2022/09/21 02:27:36;;;;;;;10.93;4.53;;;15.20;66.20;;;;;;5148147;22;20283;-92
2022/09/21 02:30:58;;;;;;;9.87;4.20;;;15.20;66.30;;;;;;5040940;28;20849;-92
2022/09/21 02:33:46;;;;;;;4.20;2.73;;;15.10;66.50;;;;;;5026076;28;20205;-94
2022/09/21 02:36:22;;;;;;;5.67;3.23;;;15.10;66.30;;;;;;5027450;28;20593;-94
2022/09/21 02:38:54;;;;;;;11.50;4.37;;;15.00;66.20;;;;;;5051369;28;20208;-94
2022/09/21 02:41:51;;;;;;;6.67;3.00;;;15.00;66.10;;;;;;5050475;28;20239;-93
2022/09/21 02:45:00;;;;;;;5.73;3.47;;;15.00;66.70;;;;;;5046344;22;20256;-92
2022/09/21 02:48:07;;;;;;;6.37;3.07;;;15.00;66.80;;;;;;5035984;28;20626;-94
2022/09/21 02:50:54;;;;;;;6.87;3.63;;;14.90;66.70;;;;;;5014371;28;20207;-92
2022/09/21 02:53:26;;;;;;;7.73;3.67;;;14.90;66.70;;;;;;5037254;28;20266;-94
2022/09/21 02:55:56;;;;;;;9.90;4.20;;;14.80;66.40;;;;;;5034244;28;20266;-93
2022/09/21 02:58:27;;;;;;;8.87;3.63;;;14.70;66.20;;;;;;5038136;28;20651;-93
2022/09/21 03:00:58;;;;;;;8.60;3.60;;;14.70;66.50;;;;;;5034867;28;20838;-93
2022/09/21 03:03:35;;;;;;;6.60;3.43;;;14.70;66.80;;;;;;5024535;28;20201;-92
2022/09/21 03:06:11;;;;;;;7.87;3.73;;;14.70;66.90;;;;;;5036072;28;20662;-94
2022/09/21 03:08:44;;;;;;;8.13;3.57;;;14.70;67.30;;;;;;5034842;28;20208;-93
2022/09/21 03:11:11;;;;;;;6.93;3.37;;;14.60;67.10;;;;;;5036001;28;20953;-93
2022/09/21 03:13:38;;;;;;;4.93;2.43;;;14.60;66.80;;;;;;5031009;28;20201;-92
2022/09/21 03:16:07;;;;;;;5.97;3.23;;;14.60;66.90;;;;;;5035236;28;20216;-93
2022/09/21 03:18:55;;;;;;;14.50;4.83;;;14.50;66.90;;;;;;5033520;28;20200;-93
2022/09/21 03:24:44;;;;;;;5.67;2.97;;;14.50;67.40;;;;;;5025100;28;20262;-94
2022/09/21 03:27:16;;;;;;;19.70;5.60;;;14.40;66.90;;;;;;5033183;28;20287;-93
2022/09/21 03:29:51;;;;;;;15.27;5.03;;;14.50;67.10;;;;;;5033383;28;20215;-93
2022/09/21 03:35:00;;;;;;;9.63;4.13;;;14.40;67.20;;;;;;5030297;28;20215;-93
2022/09/21 03:40:27;;;;;;;11.07;4.10;;;14.30;67.30;;;;;;5030595;28;20995;-94
2022/09/21 03:42:55;;;;;;;10.70;4.17;;;14.30;67.10;;;;;;5032532;28;20356;-94
2022/09/21 03:45:22;;;;;;;11.53;4.43;;;14.30;67.10;;;;;;5034077;28;20283;-94
2022/09/21 03:47:49;;;;;;;8.23;3.83;;;14.20;67.00;;;;;;5047548;28;20621;-93
2022/09/21 03:50:16;;;;;;;8.47;3.50;;;14.20;67.00;;;;;;5056007;28;20227;-94
2022/09/21 03:52:45;;;;;;;10.53;3.33;;;14.20;67.00;;;;;;5054183;28;20215;-93
2022/09/21 03:55:12;;;;;;;9.17;4.10;;;14.10;66.90;;;;;;5056227;22;20256;-92
2022/09/21 04:08:41;;;;;;;12.57;4.93;;;14.00;67.40;;;;;;4983846;28;20252;-93
2022/09/21 04:11:12;;;;;;;10.07;4.37;;;14.00;67.40;;;;;;5074034;28;20647;-93
2022/09/21 04:13:40;;;;;;;9.20;4.20;;;14.00;67.50;;;;;;5074440;28;20261;-93
2022/09/21 04:16:08;;;;;;;6.40;2.80;;;13.90;67.40;;;;;;5068392;28;20214;-94
2022/09/21 04:18:36;;;;;;;8.37;3.40;;;13.90;67.50;;;;;;5068884;28;20232;-94
2022/09/21 04:21:04;;;;;;;5.77;2.90;;;13.90;67.70;;;;;;5075469;28;20572;-93
2022/09/21 04:23:34;;;;;;;8.37;3.50;;;13.90;67.60;;;;;;5072982;28;20643;-94
2022/09/21 04:26:44;;;;;;;;;;;;;;;;;;;;;
2022/09/21 04:29:13;;;;;;;4.90;2.93;;;13.80;67.70;;;;;;5065405;28;20210;-93
2022/09/21 04:31:57;;;;;;;10.93;4.10;;;13.80;67.50;;;;;;5063225;28;20203;-94
2022/09/21 04:34:27;;;;;;;8.03;3.60;;;13.80;67.50;;;;;;5045932;28;20282;-94
2022/09/21 04:37:00;;;;;;;6.17;3.20;;;13.80;67.50;;;;;;5075308;28;20205;-93
2022/09/21 04:42:24;;;;;;;10.17;3.73;;;13.70;67.50;;;;;;5053552;28;20233;-93
2022/09/21 04:45:25;;;;;;;5.57;2.93;;;13.70;67.40;;;;;;5063627;28;20219;-93
2022/09/21 04:47:54;;;;;;;6.03;2.97;;;13.60;67.50;;;;;;5075881;28;20278;-93
2022/09/21 04:50:43;;;;;;;6.57;3.33;;;13.60;67.30;;;;;;5048205;22;20230;-94
2022/09/21 04:53:10;;;;;;;6.77;3.07;;;13.60;67.30;;;;;;5010281;28;20298;-93
2022/09/21 04:55:40;;;;;;;4.27;2.37;;;13.60;67.40;;;;;;5015667;28;20331;-94
2022/09/21 04:58:11;;;;;;;8.70;3.50;;;13.60;67.50;;;;;;5015303;28;20246;-94
2022/09/21 05:00:51;;;;;;;9.03;3.93;;;13.50;67.50;;;;;;5013438;28;20203;-94
2022/09/21 05:03:20;;;;;;;5.13;2.77;;;13.50;67.70;;;;;;5011082;28;20250;-94
2022/09/21 05:05:48;;;;;;;5.97;2.73;;;13.50;67.40;;;;;;5015257;28;20214;-92
2022/09/21 05:10:01;;;;;;;12.00;4.57;;;13.50;67.50;;;;;;5020493;28;20196;-93
2022/09/21 05:11:05;;;;;;;11.63;4.43;;;13.40;67.40;;;;;;5019963;28;20196;-94
2022/09/21 05:13:34;;;;;;;23.43;7.47;;;13.40;67.40;;;;;;5032323;22;20217;-94
2022/09/21 05:16:05;;;;;;;8.83;3.53;;;13.40;67.60;;;;;;5055926;28;20248;-92
2022/09/21 05:18:36;;;;;;;10.10;3.77;;;13.40;67.60;;;;;;5048893;28;20237;-93
2022/09/21 05:21:05;;;;;;;8.03;3.60;;;13.30;67.50;;;;;;5055441;28;20201;-92
2022/09/21 05:23:33;;;;;;;10.17;4.07;;;13.30;67.50;;;;;;5054442;28;20245;-93
2022/09/21 05:26:05;;;;;;;9.80;4.07;;;13.30;67.50;;;;;;5055658;28;20230;-92
2022/09/21 05:28:43;;;;;;;8.47;3.57;;;13.30;67.60;;;;;;5066922;28;20203;-93
2022/09/21 05:31:26;;;;;;;3.50;2.43;;;13.20;67.80;;;;;;5041315;22;20233;-92
2022/09/21 05:34:00;;;;;;;13.97;4.87;;;13.20;67.60;;;;;;5024620;28;20231;-92
2022/09/21 05:36:43;;;;;;;5.30;2.57;;;13.30;67.90;;;;;;5022792;28;20651;-93
2022/09/21 05:39:28;;;;;;;10.00;3.60;;;13.20;67.90;;;;;;5024601;28;20202;-93
2022/09/21 05:42:11;;;;;;;6.93;3.17;;;13.20;68.10;;;;;;5024665;28;20235;-93
2022/09/21 05:44:48;;;;;;;10.40;4.30;;;13.20;68.20;;;;;;5047025;22;20241;-94
2022/09/21 05:47:26;;;;;;;6.30;3.23;;;13.20;68.00;;;;;;5041883;28;20213;-94
2022/09/21 05:56:52;;;;;;;6.13;3.17;;;13.10;68.50;;;;;;5045604;22;20237;-94
2022/09/21 06:04:30;;;;;;;8.40;3.57;;;13.10;68.50;;;;;;5023765;28;20219;-94
2022/09/21 06:06:57;;;;;;;7.33;3.47;;;13.00;68.80;;;;;;5021963;28;20308;-95
2022/09/21 06:09:49;;;;;;;8.57;3.90;;;13.00;68.50;;;;;;5020575;28;20671;-95
2022/09/21 06:12:17;;;;;;;10.10;4.23;;;13.00;68.80;;;;;;5000674;28;20468;-95
2022/09/21 06:14:46;;;;;;;7.53;3.33;;;13.00;68.80;;;;;;5015331;28;20219;-94
2022/09/21 06:17:15;;;;;;;7.03;3.47;;;13.00;69.20;;;;;;5018124;28;20264;-94
2022/09/21 06:19:57;;;;;;;6.77;3.27;;;13.00;69.10;;;;;;5019370;28;20211;-94
2022/09/21 06:22:30;;;;;;;5.73;3.40;;;13.00;69.50;;;;;;5018033;28;20291;-93
2022/09/21 06:28:09;;;;;;;9.37;3.63;;;13.00;70.10;;;;;;5008590;28;20206;-94
2022/09/21 06:30:52;;;;;;;16.27;6.17;;;13.00;69.80;;;;;;5007385;28;20205;-93
2022/09/21 06:33:22;;;;;;;7.17;4.40;;;13.10;70.80;;;;;;5004307;28;20200;-95
2022/09/21 06:35:55;;;;;;;6.20;4.17;;;13.10;70.10;;;;;;5004564;28;20201;-94
2022/09/21 06:38:25;;;;;;;7.27;4.57;;;13.10;70.70;;;;;;5005166;28;20287;-93
2022/09/21 06:40:54;;;;;;;6.40;4.17;;;13.10;70.50;;;;;;5005730;28;20193;-94
2022/09/21 06:43:23;;;;;;;11.77;5.80;;;13.10;70.40;;;;;;5016032;28;20231;-93
2022/09/21 06:46:06;;;;;;;12.07;7.50;;;13.10;70.50;;;;;;5013735;28;20207;-93
2022/09/21 06:48:40;;;;;;;18.80;11.60;;;13.20;71.00;;;;;;5000790;28;20558;-93
2022/09/21 06:51:10;;;;;;;16.20;9.40;;;13.20;70.50;;;;;;5026892;28;20242;-93
2022/09/21 06:53:47;;;;;;;14.80;7.43;;;13.20;71.00;;;;;;5028110;28;20205;-94
2022/09/21 06:59:24;;;;;;;14.10;7.77;;;13.30;71.80;;;;;;5027343;28;20209;-94
2022/09/21 07:01:54;;;;;;;25.47;9.70;;;13.30;71.30;;;;;;5053163;23;20202;-91
2022/09/21 07:04:36;;;;;;;13.30;6.87;;;13.30;71.30;;;;;;5090494;22;20953;-92
2022/09/21 07:07:09;;;;;;;7.73;5.20;;;13.40;72.50;;;;;;5086317;28;20221;-93
2022/09/21 07:09:40;;;;;;;9.10;5.27;;;13.40;72.60;;;;;;5088708;28;20227;-94
2022/09/21 07:12:10;;;;;;;10.47;5.20;;;13.50;72.70;;;;;;5073967;28;20213;-94
2022/09/21 07:14:39;;;;;;;8.03;5.10;;;13.50;72.80;;;;;;5073397;28;20244;-95
2022/09/21 07:17:08;;;;;;;8.63;5.23;;;13.60;73.10;;;;;;5077114;28;20274;-93
2022/09/21 07:19:36;;;;;;;8.90;5.17;;;13.60;73.40;;;;;;5076596;28;20202;-92
2022/09/21 07:22:04;;;;;;;9.87;5.73;;;13.70;73.80;;;;;;5070107;28;20249;-93
2022/09/21 07:24:32;;;;;;;8.23;4.77;;;13.80;74.10;;;;;;5076507;28;20199;-91
2022/09/21 07:26:59;;;;;;;5.63;4.17;;;13.90;74.40;;;;;;5072803;28;20202;-92
2022/09/21 07:29:32;;;;;;;7.63;4.53;;;13.90;74.60;;;;;;5076085;28;20713;-93
2022/09/21 07:31:59;;;;;;;26.33;10.20;;;14.00;75.60;;;;;;5081052;22;20226;-92
2022/09/21 07:34:26;;;;;;;9.03;4.73;;;14.10;75.20;;;;;;5067102;28;20226;-92
2022/09/21 07:36:59;;;;;;;8.70;4.53;;;14.10;75.60;;;;;;5063350;28;20644;-92
2022/09/21 07:42:02;;;;;;;24.97;9.30;;;14.30;76.90;;;;;;5236187;22;20233;-93
2022/09/21 07:44:29;;;;;;;12.20;5.07;;;14.40;76.40;;;;;;5043966;28;20292;-92
2022/09/21 07:47:08;;;;;;;8.40;4.30;;;14.50;76.40;;;;;;5047594;28;20595;-93
2022/09/21 07:50:07;;;;;;;10.53;5.40;;;14.60;76.70;;;;;;5037116;28;20214;-91
2022/09/21 07:52:34;;;;;;;10.10;4.73;;;14.70;78.10;;;;;;5047640;28;20200;-93
2022/09/21 07:55:01;;;;;;;7.73;4.30;;;14.80;76.60;;;;;;5070183;22;20224;-94
2022/09/21 08:00:37;;;;;;;11.37;4.73;;;15.00;78.10;;;;;;5040072;28;20199;-93
2022/09/21 08:06:22;;;;;;;8.53;4.47;;;15.20;77.60;;;;;;5052591;28;20353;-93
2022/09/21 08:09:00;;;;;;;12.20;5.20;;;15.30;77.00;;;;;;5048023;28;20204;-92
2022/09/21 08:11:29;;;;;;;7.53;4.07;;;15.40;75.90;;;;;;5038730;28;20656;-92
2022/09/21 08:14:30;;;;;;;10.07;4.67;;;15.50;75.90;;;;;;5038493;28;20204;-92
2022/09/21 08:17:03;;;;;;;9.07;4.53;;;15.60;76.60;;;;;;5044220;28;20201;-92
2022/09/21 08:19:35;;;;;;;9.30;5.50;;;15.70;75.80;;;;;;5043086;28;20640;-93
2022/09/21 08:22:02;;;;;;;6.83;4.83;;;15.80;75.20;;;;;;5035781;28;20274;-91
2022/09/21 08:24:49;;;;;;;9.60;5.37;;;15.90;75.20;;;;;;5038120;28;20259;-91
2022/09/21 08:27:16;;;;;;;11.57;5.63;;;16.10;75.60;;;;;;5034805;28;20206;-94
2022/09/21 08:29:55;;;;;;;11.97;6.17;;;16.20;75.10;;;;;;5032821;28;20217;-94
2022/09/21 08:33:03;;;;;;;8.27;5.10;;;16.30;75.70;;;;;;5019981;28;20236;-92
2022/09/21 08:35:30;;;;;;;8.73;5.00;;;16.50;76.00;;;;;;5011622;28;20294;-91
2022/09/21 08:40:41;;;;;;;9.87;5.00;;;16.80;75.10;;;;;;5032518;28;20262;-93
2022/09/21 08:43:30;;;;;;;11.50;5.60;;;17.10;75.30;;;;;;5020078;28;20739;-94
2022/09/21 08:46:13;;;;;;;10.70;5.27;;;17.30;75.90;;;;;;5054944;28;20208;-94
2022/09/21 08:48:51;;;;;;;12.47;5.20;;;17.60;74.40;;;;;;5058638;28;20199;-94
2022/09/21 08:51:23;;;;;;;7.53;4.63;;;18.00;74.90;;;;;;5016873;28;20201;-93
2022/09/21 08:53:55;;;;;;;9.30;4.60;;;18.30;73.50;;;;;;5035358;28;21117;-94
2022/09/21 08:56:26;;;;;;;7.57;3.80;;;18.60;72.70;;;;;;5037335;28;20192;-94
2022/09/21 08:58:53;;;;;;;12.17;5.23;;;18.90;72.10;;;;;;5032231;28;20208;-93
2022/09/21 09:01:49;;;;;;;16.93;6.60;;;19.20;71.70;;;;;;5017473;28;20206;-94
2022/09/21 09:07:52;;;;;;;9.53;4.47;;;19.90;70.20;;;;;;5000494;28;20227;-94
2022/09/21 09:13:41;;;;;;;8.90;3.90;;;20.60;68.40;;;;;;5042884;28;20218;-93
2022/09/21 09:16:18;;;;;;;5.97;3.63;;;20.90;66.90;;;;;;5036904;28;20247;-93
2022/09/21 09:18:52;;;;;;;6.83;3.57;;;21.20;66.30;;;;;;5036948;28;20222;-93
2022/09/21 09:21:24;;;;;;;5.80;2.83;;;21.50;65.80;;;;;;5025242;28;20200;-93
2022/09/21 09:23:59;;;;;;;12.07;5.37;;;21.80;65.20;;;;;;5030871;28;20855;-92
2022/09/21 09:26:42;;;;;;;6.00;3.03;;;22.00;64.80;;;;;;5032591;28;20211;-93
2022/09/21 09:29:16;;;;;;;5.97;2.67;;;22.20;63.30;;;;;;5032254;28;20725;-93
2022/09/21 09:31:44;;;;;;;5.77;3.13;;;22.50;63.40;;;;;;5016079;28;20211;-92
2022/09/21 09:34:17;;;;;;;8.13;3.43;;;22.70;63.80;;;;;;5017698;28;20212;-92
2022/09/21 09:36:52;;;;;;;7.60;3.87;;;22.90;62.30;;;;;;5049126;28;20184;-92
2022/09/21 09:39:20;;;;;;;7.40;2.90;;;23.10;61.20;;;;;;5035119;28;20227;-93
2022/09/21 09:42:11;;;;;;;10.70;3.67;;;23.30;61.60;;;;;;5035319;28;20228;-91
2022/09/21 09:45:14;;;;;;;7.97;2.70;;;23.50;59.90;;;;;;5032795;28;20229;-93
2022/09/21 09:47:53;;;;;;;6.67;3.50;;;23.70;60.20;;;;;;5012778;28;20241;-93
2022/09/21 09:50:36;;;;;;;8.63;4.07;;;24.00;59.00;;;;;;5019269;28;20197;-93
2022/09/21 09:53:09;;;;;;;3.73;2.43;;;24.10;58.00;;;;;;5027928;28;20237;-94
2022/09/21 09:55:39;;;;;;;6.00;3.33;;;24.30;58.70;;;;;;5024898;28;20290;-92
2022/09/21 09:58:18;;;;;;;11.13;3.73;;;24.40;58.80;;;;;;5037734;28;20208;-92
2022/09/21 10:03:32;;;;;;;7.97;3.43;;;24.80;57.70;;;;;;5017444;28;20232;-91
2022/09/21 10:06:30;;;;;;;6.40;3.57;;;24.90;58.20;;;;;;5031662;28;20251;-92
2022/09/21 10:08:57;;;;;;;8.07;3.40;;;25.00;56.10;;;;;;5031824;28;20288;-92
2022/09/21 10:11:34;;;;;;;7.07;3.43;;;25.20;57.00;;;;;;5030797;28;20279;-90
2022/09/21 10:14:20;;;;;;;6.07;3.57;;;25.30;55.40;;;;;;5011865;28;20572;-92
2022/09/21 10:17:07;;;;;;;11.53;4.20;;;25.30;54.20;;;;;;5016512;28;20305;-91
2022/09/21 10:19:37;;;;;;;9.33;3.17;;;25.40;54.80;;;;;;5035343;28;20200;-91
2022/09/21 10:22:24;;;;;;;9.80;4.47;;;25.50;55.50;;;;;;5033343;28;20207;-92
2022/09/21 10:24:53;;;;;;;10.40;3.10;;;25.60;54.10;;;;;;5034058;28;20315;-92
2022/09/21 10:27:55;;;;;;;7.20;3.57;;;25.70;55.30;;;;;;5034178;28;20295;-92
2022/09/21 10:30:37;;;;;;;8.97;3.77;;;25.80;53.20;;;;;;5059804;22;20719;-92
2022/09/21 10:33:18;;;;;;;5.57;3.23;;;25.90;53.70;;;;;;5046731;28;20232;-93
2022/09/21 10:36:06;;;;;;;10.57;3.80;;;26.00;53.60;;;;;;5052754;28;20204;-91
2022/09/21 10:38:35;;;;;;;8.97;3.23;;;26.10;53.20;;;;;;5052420;28;20207;-92
2022/09/21 10:41:02;;;;;;;7.07;2.90;;;26.20;53.30;;;;;;5065231;28;20219;-91
2022/09/21 10:43:43;;;;;;;7.07;3.00;;;26.30;53.70;;;;;;5058682;28;20212;-94
2022/09/21 10:46:11;;;;;;;6.73;2.47;;;26.40;51.60;;;;;;5044604;28;20606;-92
2022/09/21 10:48:46;;;;;;;13.27;5.93;;;26.40;53.40;;;;;;5066874;22;20295;-92
2022/09/21 10:52:04;;;;;;;6.47;2.90;;;26.50;52.70;;;;;;5035777;28;20212;-93
2022/09/21 10:54:34;;;;;;;8.33;2.60;;;26.60;50.90;;;;;;5001343;28;20228;-94
2022/09/21 10:57:08;;;;;;;6.77;2.47;;;26.80;51.80;;;;;;4997003;28;20222;-94
2022/09/21 10:59:37;;;;;;;9.93;3.37;;;26.90;50.80;;;;;;5012205;28;20236;-90
2022/09/21 11:02:34;;;;;;;9.93;3.00;;;26.90;51.10;;;;;;5032341;28;20197;-92
2022/09/21 11:05:09;;;;;;;7.67;2.67;;;27.00;50.00;;;;;;5023630;28;20233;-94
2022/09/21 11:07:43;;;;;;;7.47;2.53;;;27.10;51.00;;;;;;5037525;28;20201;-93
2022/09/21 11:10:20;;;;;;;10.03;3.27;;;27.20;50.40;;;;;;5021128;28;20205;-93
2022/09/21 11:12:57;;;;;;;6.17;3.13;;;27.30;49.90;;;;;;5015001;28;20252;-95
2022/09/21 11:15:37;;;;;;;8.70;2.87;;;27.40;49.90;;;;;;5011182;28;20283;-92
2022/09/21 11:18:13;;;;;;;7.03;3.07;;;27.60;50.00;;;;;;5012878;28;20229;-94
2022/09/21 11:20:49;;;;;;;7.60;2.33;;;27.70;49.90;;;;;;5021994;28;20201;-93
2022/09/21 11:23:45;;;;;;;6.50;2.93;;;27.80;49.50;;;;;;5030795;28;20281;-91
2022/09/21 11:26:22;;;;;;;5.07;2.63;;;27.90;48.30;;;;;;5021434;28;20216;-93
2022/09/21 11:28:53;;;;;;;7.80;3.53;;;28.00;48.20;;;;;;5019603;28;20209;-93
2022/09/21 11:31:41;;;;;;;5.93;2.30;;;28.10;48.90;;;;;;5019769;28;20209;-93
2022/09/21 11:34:29;;;;;;;8.90;3.23;;;28.10;48.00;;;;;;5011555;28;20214;-94
2022/09/21 11:37:09;;;;;;;5.83;2.40;;;28.20;47.40;;;;;;5003444;28;20206;-92
2022/09/21 11:40:14;;;;;;;8.73;2.93;;;28.20;47.20;;;;;;5013843;28;20205;-91
2022/09/21 11:46:21;;;;;;;10.27;3.83;;;28.30;46.40;;;;;;5057483;28;20215;-94
2022/09/21 11:49:03;;;;;;;6.73;2.47;;;28.20;46.90;;;;;;5028655;28;20200;-93
2022/09/21 11:52:11;;;;;;;4.73;2.53;;;28.20;47.50;;;;;;5053331;28;20250;-93
2022/09/21 11:55:01;;;;;;;7.20;3.03;;;28.20;47.60;;;;;;5025031;28;20326;-94
2022/09/21 11:57:54;;;;;;;8.33;3.33;;;28.10;46.70;;;;;;5022864;28;20709;-93
2022/09/21 12:00:26;;;;;;;7.40;3.20;;;28.00;46.40;;;;;;5052421;28;20619;-94
2022/09/21 12:03:30;;;;;;;5.23;2.37;;;27.80;46.90;;;;;;5053860;28;20207;-92
2022/09/21 12:06:16;;;;;;;8.57;3.90;;;27.70;46.10;;;;;;5041689;28;20211;-92
2022/09/21 12:09:03;;;;;;;8.90;4.07;;;27.60;46.00;;;;;;5044374;28;20300;-92
2022/09/21 12:15:14;;;;;;;11.17;4.40;;;27.20;45.40;;;;;;5040138;28;20208;-91
2022/09/21 12:17:54;;;;;;;9.77;3.77;;;27.00;45.80;;;;;;5044607;28;20660;-94
2022/09/21 12:20:34;;;;;;;7.30;3.00;;;26.90;46.60;;;;;;5049430;28;20450;-93
2022/09/21 12:23:16;;;;;;;5.83;2.37;;;26.80;45.60;;;;;;5049198;28;20227;-91
2022/09/21 12:25:50;;;;;;;6.97;3.27;;;26.70;45.90;;;;;;5056122;28;20208;-93
2022/09/21 12:28:24;;;;;;;6.80;2.67;;;26.60;46.10;;;;;;5056205;28;20201;-92
2022/09/21 12:30:56;;;;;;;7.73;2.80;;;26.60;46.10;;;;;;5054352;28;20196;-94
2022/09/21 12:33:33;;;;;;;6.03;2.77;;;26.60;47.40;;;;;;5053953;28;20297;-93
2022/09/21 12:36:05;;;;;;;5.60;2.77;;;26.70;46.00;;;;;;5054140;28;20199;-92
2022/09/21 12:38:37;;;;;;;5.80;2.33;;;26.70;46.00;;;;;;5054649;28;20224;-92
2022/09/21 12:41:10;;;;;;;9.50;3.83;;;26.70;45.90;;;;;;5063948;28;20209;-93
2022/09/21 12:43:43;;;;;;;8.37;3.37;;;26.70;45.80;;;;;;5065890;28;20212;-93
2022/09/21 12:46:17;;;;;;;6.00;3.20;;;26.60;45.90;;;;;;5064676;28;20204;-93
2022/09/21 12:48:46;;;;;;;5.33;2.80;;;26.60;45.50;;;;;;5063727;28;20208;-93
2022/09/21 12:51:24;;;;;;;4.33;2.63;;;26.50;45.30;;;;;;5064081;28;20667;-93
2022/09/21 12:56:35;;;;;;;8.43;3.20;;;26.40;45.40;;;;;;5081655;22;20760;-92
2022/09/21 12:59:41;;;;;;;5.10;2.60;;;26.30;46.00;;;;;;5074843;28;20609;-92
2022/09/21 13:02:19;;;;;;;8.93;3.20;;;26.20;44.80;;;;;;5071640;28;20284;-92
2022/09/21 13:05:00;;;;;;;12.17;5.27;;;26.20;46.30;;;;;;5065234;28;20267;-92
2022/09/21 13:08:02;;;;;;;6.63;3.30;;;26.20;45.60;;;;;;5078464;28;20195;-92
2022/09/21 13:10:41;;;;;;;9.33;4.07;;;26.30;46.00;;;;;;5077845;28;20248;-94
2022/09/21 13:13:20;;;;;;;10.23;4.17;;;26.40;45.40;;;;;;5088872;28;20206;-92
2022/09/21 13:15:49;;;;;;;5.73;2.90;;;26.50;45.30;;;;;;5073179;28;20195;-93
2022/09/21 13:18:28;;;;;;;5.83;1.90;;;26.60;45.80;;;;;;5080794;28;20206;-92
2022/09/21 13:21:00;;;;;;;5.90;2.90;;;26.70;44.80;;;;;;5082022;28;20195;-94
2022/09/21 13:23:34;;;;;;;5.07;2.43;;;26.80;45.50;;;;;;5075358;28;20203;-93
2022/09/21 13:26:05;;;;;;;6.90;3.20;;;26.90;45.10;;;;;;5083344;28;20207;-93
2022/09/21 13:29:02;;;;;;;5.73;2.83;;;26.90;44.60;;;;;;5065212;28;20215;-96
2022/09/21 13:31:44;;;;;;;6.00;2.03;;;27.00;44.40;;;;;;5059531;28;20721;-93
2022/09/21 13:34:24;;;;;;;6.27;2.53;;;27.00;45.00;;;;;;5075891;28;20211;-93
2022/09/21 13:37:43;;;;;;;7.80;2.50;;;27.00;44.00;;;;;;5073910;28;20207;-95
2022/09/21 13:40:49;;;;;;;5.87;2.90;;;26.90;43.60;;;;;;5065804;28;20212;-94
2022/09/21 13:43:24;;;;;;;5.83;2.27;;;26.90;43.50;;;;;;5060243;28;20613;-94
2022/09/21 13:45:55;;;;;;;6.27;1.90;;;26.80;44.10;;;;;;5068561;28;20647;-95
2022/09/21 13:48:28;;;;;;;9.90;3.17;;;26.70;44.10;;;;;;5072202;28;20294;-93
2022/09/21 13:51:07;;;;;;;7.27;3.07;;;26.70;44.00;;;;;;5071082;28;20207;-92
2022/09/21 13:53:39;;;;;;;5.23;2.40;;;26.70;43.50;;;;;;5068273;28;20254;-94
2022/09/21 13:56:18;;;;;;;7.40;3.27;;;26.60;44.20;;;;;;5071963;28;20217;-95
2022/09/21 13:58:56;;;;;;;6.00;2.50;;;26.60;43.90;;;;;;5082405;28;20693;-93
2022/09/21 14:01:31;;;;;;;8.07;2.23;;;26.70;43.10;;;;;;5076431;28;20219;-92
2022/09/21 14:04:02;;;;;;;8.40;2.97;;;26.60;43.90;;;;;;5077786;28;20202;-93
2022/09/21 14:06:34;;;;;;;5.43;1.93;;;26.70;43.90;;;;;;5078034;28;20207;-91
2022/09/21 14:09:07;;;;;;;7.57;2.87;;;26.70;44.20;;;;;;5077786;28;20539;-92
2022/09/21 14:11:38;;;;;;;8.43;3.53;;;26.80;43.80;;;;;;5077065;28;20222;-92
2022/09/21 14:14:29;;;;;;;6.53;2.40;;;26.80;44.00;;;;;;5058655;28;20227;-95
2022/09/21 14:16:59;;;;;;;4.87;2.33;;;26.80;43.80;;;;;;5078735;28;20590;-93
2022/09/21 14:19:59;;;;;;;6.50;2.33;;;26.70;44.20;;;;;;5078602;28;20564;-94
2022/09/21 14:23:09;;;;;;;5.30;2.30;;;26.70;43.70;;;;;;5059455;28;20208;-92
2022/09/21 14:25:55;;;;;;;3.03;1.60;;;26.60;44.00;;;;;;5065937;28;20250;-94
2022/09/21 14:28:41;;;;;;;5.73;2.23;;;26.60;43.90;;;;;;5075946;28;20192;-93
2022/09/21 14:31:19;;;;;;;5.33;2.33;;;26.50;43.60;;;;;;5076129;28;20262;-93
2022/09/21 14:33:48;;;;;;;4.37;2.27;;;26.40;43.70;;;;;;5073260;28;20218;-91
2022/09/21 14:36:20;;;;;;;7.37;3.43;;;26.30;44.00;;;;;;5077052;28;20229;-93
2022/09/21 14:38:51;;;;;;;6.93;2.67;;;26.20;44.70;;;;;;5078039;28;20196;-93
2022/09/21 14:41:26;;;;;;;7.47;2.67;;;26.10;44.20;;;;;;5075320;28;20206;-94
2022/09/21 14:43:55;;;;;;;4.77;1.70;;;26.00;43.70;;;;;;5078423;28;20207;-96
2022/09/21 14:46:58;;;;;;;5.53;2.33;;;25.90;44.00;;;;;;5079385;28;20285;-92
2022/09/21 14:49:43;;;;;;;12.87;4.37;;;25.90;43.40;;;;;;5076696;28;20215;-92
2022/09/21 14:52:27;;;;;;;7.17;2.60;;;25.80;43.60;;;;;;5080119;28;20214;-92
2022/09/21 14:55:08;;;;;;;8.93;2.07;;;25.70;43.60;;;;;;5077869;28;20287;-93
2022/09/21 14:57:55;;;;;;;3.93;1.80;;;25.70;43.60;;;;;;5076383;28;20195;-93